createdAt,value
2019-03-12T00:01:57.514Z,2.80
2019-03-12T00:04:28.278Z,2.90
2019-03-12T00:06:59.040Z,2.80
2019-03-12T00:09:29.801Z,3.20
2019-03-12T00:12:00.558Z,3.40
2019-03-12T00:14:31.325Z,3.13
2019-03-12T00:17:02.085Z,3.23
2019-03-12T00:19:32.858Z,3.30
2019-03-12T00:22:03.614Z,2.97
2019-03-12T00:24:34.383Z,3.50
2019-03-12T00:27:05.141Z,3.10
2019-03-12T00:29:35.910Z,3.10
2019-03-12T00:32:06.667Z,3.20
2019-03-12T00:34:37.434Z,3.23
2019-03-12T00:37:08.192Z,3.13
2019-03-12T00:39:38.963Z,3.50
2019-03-12T00:42:09.723Z,2.80
2019-03-12T00:44:40.517Z,2.63
2019-03-12T00:47:11.295Z,2.70
2019-03-12T00:49:42.065Z,3.07
2019-03-12T00:52:12.822Z,3.27
2019-03-12T00:54:43.589Z,3.00
2019-03-12T00:57:14.347Z,2.90
2019-03-12T00:59:45.114Z,3.80
2019-03-12T01:02:15.886Z,3.60
2019-03-12T01:04:46.676Z,5.60
2019-03-12T01:07:17.433Z,3.70
2019-03-12T01:09:48.198Z,3.10
2019-03-12T01:12:18.964Z,3.63
2019-03-12T01:14:49.721Z,4.13
2019-03-12T01:17:20.482Z,3.80
2019-03-12T01:19:51.258Z,3.70
2019-03-12T01:22:22.015Z,3.93
2019-03-12T01:24:52.792Z,3.93
2019-03-12T01:27:23.560Z,4.50
2019-03-12T01:29:54.407Z,3.83
2019-03-12T01:32:25.160Z,3.73
2019-03-12T01:34:55.926Z,3.30
2019-03-12T01:37:26.681Z,3.50
2019-03-12T01:39:57.445Z,3.53
2019-03-12T01:42:28.205Z,3.77
2019-03-12T01:44:58.974Z,4.80
2019-03-12T01:47:29.729Z,3.50
2019-03-12T01:50:00.517Z,3.13
2019-03-12T01:52:31.304Z,3.53
2019-03-12T01:55:04.146Z,3.40
2019-03-12T01:57:34.911Z,3.72
2019-03-12T02:00:13.317Z,4.03
2019-03-12T02:02:44.081Z,3.37
2019-03-12T02:05:14.843Z,3.60
2019-03-12T02:07:45.600Z,3.10
2019-03-12T02:10:16.374Z,3.40
2019-03-12T02:12:47.137Z,3.33
2019-03-12T02:15:17.955Z,4.30
2019-03-12T02:17:48.709Z,3.60
2019-03-12T02:20:19.470Z,3.70
2019-03-12T02:22:50.226Z,3.47
2019-03-12T02:25:20.990Z,3.80
2019-03-12T02:27:51.749Z,3.53
2019-03-12T02:30:22.620Z,3.47
2019-03-12T02:32:53.667Z,3.40
2019-03-12T02:35:24.454Z,3.10
2019-03-12T02:37:55.206Z,3.10
2019-03-12T02:40:25.975Z,2.83
2019-03-12T02:42:56.731Z,2.53
2019-03-12T02:45:27.606Z,2.73
2019-03-12T02:47:58.367Z,2.80
2019-03-12T02:50:29.131Z,3.10
2019-03-12T02:52:59.898Z,2.90
2019-03-12T02:55:30.657Z,2.73
2019-03-12T02:58:01.451Z,3.27
2019-03-12T03:00:32.175Z,3.00
2019-03-12T03:03:02.930Z,2.83
2019-03-12T03:05:35.710Z,2.80
2019-03-12T03:08:08.379Z,2.35
2019-03-12T03:10:39.156Z,2.60
2019-03-12T03:13:09.915Z,2.70
2019-03-12T03:15:42.703Z,2.70
2019-03-12T03:18:13.490Z,2.87
2019-03-12T03:20:44.263Z,3.17
2019-03-12T03:23:15.013Z,2.80
2019-03-12T03:25:45.775Z,3.27
2019-03-12T03:28:16.537Z,3.20
2019-03-12T03:30:47.324Z,3.03
2019-03-12T03:33:18.066Z,3.20
2019-03-12T03:35:48.827Z,3.33
2019-03-12T03:38:19.588Z,3.23
2019-03-12T03:40:50.409Z,3.20
2019-03-12T03:43:21.165Z,3.37
2019-03-12T03:45:52.243Z,3.10
2019-03-12T03:48:23.020Z,3.52
2019-03-12T03:50:53.763Z,4.10
2019-03-12T03:53:24.539Z,3.60
2019-03-12T03:55:55.394Z,4.03
2019-03-12T03:58:26.155Z,3.10
2019-03-12T04:00:56.916Z,3.20
2019-03-12T04:03:27.693Z,2.63
2019-03-12T04:05:58.448Z,3.00
2019-03-12T04:08:29.210Z,3.27
2019-03-12T04:10:59.968Z,2.90
2019-03-12T04:13:30.776Z,3.20
2019-03-12T04:16:01.636Z,2.77
2019-03-12T04:18:32.470Z,2.70
2019-03-12T04:21:03.246Z,3.03
2019-03-12T04:23:33.986Z,3.10
2019-03-12T04:26:04.859Z,3.23
2019-03-12T04:28:35.649Z,3.00
2019-03-12T04:31:06.455Z,3.60
2019-03-12T04:33:53.399Z,3.60
2019-03-12T04:36:24.193Z,3.25
2019-03-12T04:38:54.959Z,3.70
2019-03-12T04:41:25.718Z,3.57
2019-03-12T04:43:56.481Z,3.57
2019-03-12T04:46:27.266Z,3.70
2019-03-12T04:48:58.034Z,3.30
2019-03-12T04:51:28.811Z,4.40
2019-03-12T04:53:59.579Z,3.83
2019-03-12T04:56:30.338Z,3.23
2019-03-12T04:59:01.113Z,4.20
2019-03-12T05:01:31.870Z,3.90
2019-03-12T05:04:02.639Z,3.50
2019-03-12T05:06:33.394Z,4.03
2019-03-12T05:09:04.862Z,4.07
2019-03-12T05:11:35.729Z,4.08
2019-03-12T05:14:18.401Z,3.40
2019-03-12T05:16:50.365Z,4.12
2019-03-12T05:19:22.542Z,3.85
2019-03-12T05:21:53.377Z,4.87
2019-03-12T05:24:24.090Z,3.60
2019-03-12T05:26:54.846Z,4.63
2019-03-12T05:29:25.618Z,4.10
2019-03-12T05:31:56.375Z,4.00
2019-03-12T05:34:27.192Z,4.20
2019-03-12T05:36:57.946Z,4.53
2019-03-12T05:39:28.709Z,4.90
2019-03-12T05:41:59.471Z,4.70
2019-03-12T05:44:30.234Z,4.90
2019-03-12T05:47:00.998Z,4.50
2019-03-12T05:49:31.765Z,5.30
2019-03-12T05:52:02.625Z,4.10
2019-03-12T05:54:33.393Z,4.13
2019-03-12T05:57:04.146Z,4.87
2019-03-12T05:59:34.916Z,4.13
2019-03-12T06:02:05.669Z,4.10
2019-03-12T06:04:36.446Z,4.07
2019-03-12T06:07:07.200Z,4.23
2019-03-12T06:09:37.998Z,4.50
2019-03-12T06:12:08.763Z,4.20
2019-03-12T06:14:39.531Z,4.47
2019-03-12T06:17:10.291Z,4.37
2019-03-12T06:19:41.092Z,4.83
2019-03-12T06:22:12.348Z,4.70
2019-03-12T06:24:43.122Z,4.62
2019-03-12T06:27:13.884Z,4.00
2019-03-12T06:29:44.650Z,4.13
2019-03-12T06:32:20.090Z,4.63
2019-03-12T06:34:52.469Z,4.80
2019-03-12T06:37:40.241Z,4.30
2019-03-12T06:40:16.122Z,4.60
2019-03-12T06:42:54.442Z,3.60
2019-03-12T06:45:33.007Z,4.12
2019-03-12T06:48:08.467Z,4.30
2019-03-12T06:50:41.147Z,4.20
2019-03-12T06:53:28.554Z,3.60
2019-03-12T06:56:18.166Z,4.22
2019-03-12T06:58:50.835Z,3.80
2019-03-12T07:01:26.051Z,4.05
2019-03-12T07:03:58.727Z,4.00
2019-03-12T07:06:33.958Z,3.62
2019-03-12T07:09:15.802Z,3.40
2019-03-12T07:11:51.239Z,3.30
2019-03-12T07:14:23.927Z,3.65
2019-03-12T07:16:56.591Z,3.60
2019-03-12T07:19:29.374Z,3.72
2019-03-12T07:22:17.357Z,3.65
2019-03-12T07:24:59.130Z,4.35
2019-03-12T07:27:34.309Z,3.75
2019-03-12T07:30:12.849Z,3.83
2019-03-12T07:32:47.955Z,3.27
2019-03-12T07:35:23.650Z,3.85
2019-03-12T07:38:13.206Z,3.35
2019-03-12T07:40:51.940Z,3.77
2019-03-12T07:43:30.340Z,3.80
2019-03-12T07:46:15.542Z,3.33
2019-03-12T07:48:53.748Z,3.80
2019-03-12T07:51:26.426Z,3.70
2019-03-12T07:54:11.182Z,3.92
2019-03-12T07:57:00.655Z,3.95
2019-03-12T07:59:36.088Z,3.60
2019-03-12T08:02:18.079Z,4.08
2019-03-12T08:04:53.347Z,3.35
2019-03-12T08:07:31.950Z,3.87
2019-03-12T08:10:10.913Z,3.52
2019-03-12T08:12:43.582Z,3.33
2019-03-12T08:15:28.203Z,3.55
2019-03-12T08:18:00.889Z,4.03
2019-03-12T08:20:45.729Z,3.33
2019-03-12T08:23:30.462Z,3.47
2019-03-12T08:26:03.142Z,3.87
2019-03-12T08:28:52.492Z,2.95
2019-03-12T08:31:27.791Z,3.17
2019-03-12T08:34:15.373Z,3.15
2019-03-12T08:36:54.014Z,3.17
2019-03-12T08:39:26.674Z,3.10
2019-03-12T08:41:59.360Z,3.10
2019-03-12T08:44:37.445Z,3.50
2019-03-12T08:47:27.518Z,2.98
2019-03-12T08:50:00.390Z,3.05
2019-03-12T08:52:38.909Z,3.87
2019-03-12T08:55:27.979Z,2.62
2019-03-12T08:58:00.661Z,2.95
2019-03-12T09:00:36.077Z,3.30
2019-03-12T09:03:25.618Z,2.95
2019-03-12T09:06:15.035Z,2.90
2019-03-12T09:09:04.299Z,2.77
2019-03-12T09:11:36.984Z,3.00
2019-03-12T09:14:21.311Z,3.50
2019-03-12T09:16:53.986Z,3.15
2019-03-12T09:19:26.649Z,3.67
2019-03-12T09:21:59.318Z,3.90
2019-03-12T09:24:31.978Z,3.37
2019-03-12T09:27:04.854Z,3.10
2019-03-12T09:29:37.518Z,2.70
2019-03-12T09:32:15.779Z,3.05
2019-03-12T09:35:05.210Z,2.90
2019-03-12T09:37:37.884Z,2.77
2019-03-12T09:40:11.950Z,3.00
2019-03-12T09:42:50.849Z,3.45
2019-03-12T09:45:26.585Z,3.92
2019-03-12T09:47:59.201Z,3.10
2019-03-12T09:50:37.645Z,3.85
2019-03-12T09:53:22.523Z,3.40
2019-03-12T09:56:00.998Z,3.87
2019-03-12T09:58:42.459Z,3.67
2019-03-12T10:01:15.121Z,3.50
2019-03-12T10:03:53.807Z,3.30
2019-03-12T10:06:35.689Z,3.45
2019-03-12T10:09:18.090Z,3.75
2019-03-12T10:11:59.523Z,3.47
2019-03-12T10:14:34.774Z,3.17
2019-03-12T10:17:10.362Z,3.70
2019-03-12T10:19:52.098Z,3.92
2019-03-12T10:22:42.874Z,4.15
2019-03-12T10:25:15.537Z,3.50
2019-03-12T10:27:57.110Z,3.47
2019-03-12T10:30:46.815Z,4.20
2019-03-12T10:33:22.015Z,4.33
2019-03-12T10:35:54.689Z,3.50
2019-03-12T10:39:20.676Z,3.67
2019-03-12T10:41:59.490Z,4.33
2019-03-12T10:44:37.710Z,3.72
2019-03-12T10:47:22.210Z,3.30
2019-03-12T10:49:52.973Z,4.10
2019-03-12T10:52:23.731Z,4.20
2019-03-12T10:54:54.499Z,3.53
2019-03-12T10:57:25.253Z,3.77
2019-03-12T10:59:56.020Z,3.53
2019-03-12T11:02:26.784Z,3.60
2019-03-12T11:04:57.553Z,3.60
2019-03-12T11:07:28.305Z,3.67
2019-03-12T11:09:59.135Z,3.40
2019-03-12T11:12:29.846Z,4.10
2019-03-12T11:15:00.613Z,3.50
2019-03-12T11:17:31.368Z,3.87
2019-03-12T11:20:05.257Z,3.27
2019-03-12T11:22:36.060Z,3.35
2019-03-12T11:25:07.026Z,3.20
2019-03-12T11:27:37.928Z,3.33
2019-03-12T11:30:14.215Z,3.00
2019-03-12T11:32:45.106Z,3.30
2019-03-12T11:35:16.007Z,2.80
2019-03-12T11:37:46.781Z,3.77
2019-03-12T11:40:19.858Z,3.17
2019-03-12T11:42:51.208Z,3.65
2019-03-12T11:45:34.800Z,3.72
2019-03-12T11:47:54.792Z,3.10
2019-03-12T11:50:25.595Z,3.50
2019-03-12T11:52:58.810Z,3.03
2019-03-12T11:55:29.017Z,3.40
2019-03-12T11:57:59.772Z,2.90
2019-03-12T12:00:35.201Z,3.60
2019-03-12T12:03:06.084Z,3.27
2019-03-12T12:05:36.850Z,3.40
2019-03-12T12:08:07.638Z,3.53
2019-03-12T12:10:38.390Z,3.20
2019-03-12T12:13:09.147Z,2.97
2019-03-12T12:15:39.921Z,2.87
2019-03-12T12:18:10.878Z,3.10
2019-03-12T12:20:41.655Z,3.10
2019-03-12T12:23:12.417Z,2.80
2019-03-12T12:25:43.205Z,2.50
2019-03-12T12:28:13.946Z,2.80
2019-03-12T12:30:44.715Z,2.80
2019-03-12T12:33:15.772Z,2.30
2019-03-12T12:35:46.547Z,3.40
2019-03-12T12:38:17.321Z,2.80
2019-03-12T12:40:48.078Z,2.70
2019-03-12T12:43:18.826Z,2.43
2019-03-12T12:45:49.594Z,2.90
2019-03-12T12:48:20.350Z,3.13
2019-03-12T12:51:02.436Z,2.30
2019-03-12T12:53:23.785Z,3.52
2019-03-12T12:55:54.564Z,2.40
2019-03-12T12:58:25.554Z,2.10
2019-03-12T13:00:56.319Z,2.70
2019-03-12T13:03:27.074Z,2.57
2019-03-12T13:05:57.844Z,2.83
2019-03-12T13:08:28.600Z,2.20
2019-03-12T13:10:59.366Z,2.70
2019-03-12T13:13:30.125Z,2.77
2019-03-12T13:16:00.993Z,2.30
2019-03-12T13:18:31.766Z,2.63
2019-03-12T13:21:02.529Z,2.60
2019-03-12T13:23:36.046Z,1.97
2019-03-12T13:26:05.963Z,2.72
2019-03-12T13:28:36.720Z,3.17
2019-03-12T13:31:07.490Z,2.10
2019-03-12T13:33:38.258Z,2.30
2019-03-12T13:36:10.923Z,2.13
2019-03-12T13:38:46.168Z,2.40
2019-03-12T13:41:14.370Z,2.20
2019-03-12T13:43:45.122Z,2.17
2019-03-12T13:46:15.911Z,2.27
2019-03-12T13:48:46.666Z,2.47
2019-03-12T13:51:17.418Z,2.30
2019-03-12T13:53:48.659Z,2.67
2019-03-12T13:56:19.562Z,2.80
2019-03-12T13:58:50.318Z,2.20
2019-03-12T14:01:21.082Z,2.10
2019-03-12T14:03:51.848Z,2.40
2019-03-12T14:06:22.615Z,2.30
2019-03-12T14:08:53.374Z,2.40
2019-03-12T14:11:24.144Z,2.10
2019-03-12T14:13:54.906Z,2.17
2019-03-12T14:16:25.667Z,2.10
2019-03-12T14:18:56.437Z,2.00
2019-03-12T14:21:31.040Z,2.20
2019-03-12T14:24:01.982Z,2.37
2019-03-12T14:26:32.954Z,1.90
2019-03-12T14:29:03.715Z,2.40
2019-03-12T14:31:34.477Z,2.00
2019-03-12T14:34:05.233Z,2.33
2019-03-12T14:36:36.006Z,2.17
2019-03-12T14:39:07.375Z,2.00
2019-03-12T14:41:38.151Z,2.20
2019-03-12T14:44:08.907Z,2.00
2019-03-12T14:46:39.674Z,2.10
2019-03-12T14:49:10.426Z,2.40
2019-03-12T14:52:00.256Z,2.30
2019-03-12T14:54:31.030Z,2.60
2019-03-12T14:57:01.908Z,2.57
2019-03-12T14:59:33.465Z,2.00
2019-03-12T15:02:04.666Z,2.02
2019-03-12T15:04:35.427Z,1.90
2019-03-12T15:07:06.198Z,2.00
2019-03-12T15:09:36.961Z,2.03
2019-03-12T15:12:07.734Z,2.40
2019-03-12T15:14:38.492Z,1.73
2019-03-12T15:17:09.260Z,2.07
2019-03-12T15:19:40.027Z,1.80
2019-03-12T15:22:10.797Z,1.70
2019-03-12T15:24:41.579Z,1.80
2019-03-12T15:27:12.345Z,1.80
2019-03-12T15:29:43.108Z,1.80
2019-03-12T15:32:13.883Z,1.63
2019-03-12T15:34:44.632Z,1.90
2019-03-12T15:37:16.314Z,2.20
2019-03-12T15:39:47.077Z,2.10
2019-03-12T15:42:17.844Z,1.87
2019-03-12T15:44:48.598Z,2.67
2019-03-12T15:47:19.377Z,2.40
2019-03-12T15:49:59.398Z,1.83
2019-03-12T15:52:30.170Z,2.00
2019-03-12T15:55:00.929Z,2.10
2019-03-12T15:57:31.702Z,2.10
2019-03-12T16:00:08.890Z,1.80
2019-03-12T16:02:39.666Z,2.20
2019-03-12T16:05:10.659Z,1.80
2019-03-12T16:07:41.439Z,2.33
2019-03-12T16:10:19.530Z,2.10
2019-03-12T16:12:49.825Z,3.05
2019-03-12T16:15:20.577Z,1.60
2019-03-12T16:17:51.463Z,1.83
2019-03-12T16:20:22.450Z,2.97
2019-03-12T16:22:53.214Z,2.57
2019-03-12T16:25:23.974Z,1.73
2019-03-12T16:27:54.742Z,1.90
2019-03-12T16:30:25.502Z,2.00
2019-03-12T16:32:56.273Z,1.90
2019-03-12T16:35:27.079Z,3.10
2019-03-12T16:37:57.928Z,2.07
2019-03-12T16:40:28.700Z,2.37
2019-03-12T16:42:59.855Z,2.00
2019-03-12T16:45:30.669Z,1.87
2019-03-12T16:48:01.441Z,1.80
2019-03-12T16:50:32.305Z,2.00
2019-03-12T16:53:03.074Z,2.97
2019-03-12T16:55:33.831Z,2.60
2019-03-12T16:58:04.596Z,2.93
2019-03-12T17:00:35.458Z,2.50
2019-03-12T17:03:06.225Z,2.17
2019-03-12T17:05:36.986Z,2.40
2019-03-12T17:08:07.760Z,2.40
2019-03-12T17:10:38.512Z,2.00
2019-03-12T17:13:09.335Z,2.03
2019-03-12T17:15:40.038Z,2.80
2019-03-12T17:18:10.806Z,2.20
2019-03-12T17:20:41.570Z,2.17
2019-03-12T17:23:12.347Z,2.13
2019-03-12T17:25:43.113Z,2.40
2019-03-12T17:28:13.885Z,2.07
2019-03-12T17:30:44.668Z,1.77
2019-03-12T17:33:15.434Z,1.77
2019-03-12T17:35:46.413Z,2.17
2019-03-12T17:38:17.201Z,2.20
2019-03-12T17:40:47.958Z,2.80
2019-03-12T17:43:18.727Z,2.87
2019-03-12T17:45:49.490Z,2.33
2019-03-12T17:48:20.257Z,2.77
2019-03-12T17:50:51.014Z,2.63
2019-03-12T17:53:21.782Z,2.63
2019-03-12T17:55:52.539Z,2.87
2019-03-12T17:58:23.307Z,2.43
2019-03-12T18:00:54.065Z,2.70
2019-03-12T18:03:24.828Z,2.83
2019-03-12T18:05:55.576Z,3.50
2019-03-12T18:08:26.346Z,3.43
2019-03-12T18:10:57.144Z,3.57
2019-03-12T18:13:27.886Z,8.30
2019-03-12T18:15:58.643Z,3.80
2019-03-12T18:18:29.442Z,3.80
2019-03-12T18:21:00.191Z,4.80
2019-03-12T18:23:30.962Z,3.17
2019-03-12T18:26:03.529Z,4.03
2019-03-12T18:28:34.529Z,3.17
2019-03-12T18:31:05.375Z,2.95
2019-03-12T18:33:36.139Z,3.13
2019-03-12T18:36:07.007Z,2.90
2019-03-12T18:38:37.773Z,3.07
2019-03-12T18:41:08.534Z,3.97
2019-03-12T18:43:39.366Z,2.73
2019-03-12T18:46:10.122Z,3.00
2019-03-12T18:48:40.889Z,2.73
2019-03-12T18:51:11.650Z,3.00
2019-03-12T18:53:42.418Z,3.20
2019-03-12T18:56:13.179Z,3.23
2019-03-12T18:58:43.941Z,3.07
2019-03-12T19:01:14.807Z,2.50
2019-03-12T19:03:45.607Z,3.33
2019-03-12T19:06:16.374Z,2.93
2019-03-12T19:08:48.027Z,4.20
2019-03-12T19:11:19.117Z,3.80
2019-03-12T19:13:49.981Z,2.90
2019-03-12T19:16:20.801Z,3.30
2019-03-12T19:18:51.514Z,3.20
2019-03-12T19:21:22.275Z,3.07
2019-03-12T19:23:53.046Z,3.33
2019-03-12T19:26:24.009Z,3.97
2019-03-12T19:28:54.781Z,2.73
2019-03-12T19:31:27.442Z,3.13
2019-03-12T19:33:59.623Z,3.00
2019-03-12T19:36:31.293Z,3.30
2019-03-12T19:39:04.818Z,3.45
2019-03-12T19:41:36.624Z,3.02
2019-03-12T19:44:07.570Z,3.70
2019-03-12T19:46:38.328Z,3.63
2019-03-12T19:49:09.107Z,4.47
2019-03-12T19:51:39.861Z,5.07
2019-03-12T19:54:10.631Z,5.50
2019-03-12T19:56:41.725Z,4.93
2019-03-12T19:59:12.486Z,4.05
2019-03-12T20:01:43.451Z,3.30
2019-03-12T20:04:14.213Z,3.57
2019-03-12T20:06:45.154Z,3.57
2019-03-12T20:09:19.862Z,2.98
2019-03-12T20:12:09.749Z,2.58
2019-03-12T20:15:11.666Z,3.05
2019-03-12T20:18:05.656Z,3.12
2019-03-12T20:20:52.284Z,3.30
2019-03-12T20:23:44.494Z,3.27
2019-03-12T20:26:44.748Z,3.55
2019-03-12T20:29:42.601Z,3.40
2019-03-12T20:32:36.399Z,3.62
2019-03-12T20:35:17.080Z,3.47
2019-03-12T20:38:26.970Z,2.92
2019-03-12T20:41:21.749Z,2.87
2019-03-12T20:44:25.323Z,2.90
2019-03-12T20:46:59.911Z,3.17
2019-03-12T20:49:46.526Z,3.12
2019-03-12T20:52:26.897Z,2.90
2019-03-12T20:55:07.694Z,3.10
2019-03-12T20:57:59.272Z,3.47
2019-03-12T21:00:42.923Z,2.55
2019-03-12T21:03:34.186Z,2.50
2019-03-12T21:06:21.026Z,2.98
2019-03-12T21:09:16.550Z,2.83
2019-03-12T21:12:10.820Z,3.00
2019-03-12T21:14:57.603Z,2.55
2019-03-12T21:18:01.707Z,2.98
2019-03-12T21:21:00.887Z,3.20
2019-03-12T21:23:35.469Z,3.60
2019-03-12T21:26:43.746Z,2.87
2019-03-12T21:29:21.399Z,3.45
2019-03-12T21:31:52.182Z,3.75
2019-03-12T21:34:22.946Z,3.70
2019-03-12T21:36:54.078Z,3.20
2019-03-12T21:39:24.975Z,2.92
2019-03-12T21:41:55.743Z,2.70
2019-03-12T21:44:27.123Z,2.63
2019-03-12T21:46:58.143Z,2.80
2019-03-12T21:49:28.928Z,2.63
2019-03-12T21:51:59.693Z,2.30
2019-03-12T21:54:30.469Z,2.60
2019-03-12T21:57:01.246Z,2.67
2019-03-12T21:59:32.008Z,2.30
2019-03-12T22:02:02.879Z,3.07
2019-03-12T22:04:33.630Z,3.00
2019-03-12T22:07:04.514Z,3.27
2019-03-12T22:09:35.279Z,2.30
2019-03-12T22:12:06.042Z,3.10
2019-03-12T22:14:36.821Z,3.80
2019-03-12T22:17:07.593Z,2.80
2019-03-12T22:19:38.362Z,2.83
2019-03-12T22:22:19.601Z,2.70
2019-03-12T22:24:50.393Z,3.20
2019-03-12T22:27:21.163Z,3.60
2019-03-12T22:29:51.917Z,2.90
2019-03-12T22:32:22.683Z,3.20
2019-03-12T22:34:53.438Z,3.10
2019-03-12T22:37:24.219Z,2.70
2019-03-12T22:39:55.013Z,3.20
2019-03-12T22:42:25.783Z,2.77
2019-03-12T22:44:56.536Z,2.70
2019-03-12T22:47:27.631Z,3.13
2019-03-12T22:49:58.401Z,3.40
2019-03-12T22:52:29.507Z,3.10
2019-03-12T22:55:03.494Z,3.50
2019-03-12T22:57:32.957Z,3.00
2019-03-12T23:00:19.099Z,3.00
2019-03-12T23:02:49.875Z,2.90
2019-03-12T23:05:20.629Z,3.03
2019-03-12T23:07:51.536Z,3.37
2019-03-12T23:10:22.603Z,3.23
2019-03-12T23:12:53.474Z,3.25
2019-03-12T23:15:24.433Z,3.37
2019-03-12T23:17:55.329Z,3.00
2019-03-12T23:20:26.206Z,2.93
2019-03-12T23:22:56.978Z,2.97
2019-03-12T23:25:27.790Z,2.80
2019-03-12T23:27:58.541Z,2.80
2019-03-12T23:30:29.308Z,2.87
2019-03-12T23:33:00.066Z,3.30
2019-03-12T23:35:30.830Z,2.47
2019-03-12T23:38:01.764Z,3.37
2019-03-12T23:40:32.511Z,2.87
2019-03-12T23:43:03.267Z,2.90
2019-03-12T23:45:34.045Z,2.60
2019-03-12T23:48:04.825Z,2.80
2019-03-12T23:50:35.590Z,2.67
2019-03-12T23:53:06.334Z,2.73
2019-03-12T23:55:37.110Z,2.90
2019-03-12T23:58:07.871Z,2.53
